Managua, Nicaragua
Current Conditions -  °F | °C
As of 5:00 PM on Friday 28 Nov 2014 (Local Time) from MNMG Reporting Station
Few Clouds Few Clouds  
Wind Chill: 86°   Ceiling: Unl
Heat Index: 93°   Visibility: 6mi
Dew Point: 73°   Wind: 16mph
Humidity: 66%   Direction: 70°ENE
Pressure: 29.77"   Gusts: NA
Location:  12.15°N, 86.27°W
Report Text: MNMG 282300Z 07014KT 9999 FEW023 30/23 Q1008 A2977 NOSIG
Loading
Personal Weather Stations






























Interactive Weather Map New forecast layout! Learn more

10-Day Weather Forecast

Advertisements
Track Severe Weather on mobile